Scammon Bay, AK

1:27 PM AKST on February 20, 2017 (GMT -0900)
Cape Romanzof LRRS | | Change Station

Elev 456 ft 61.78 °N, 166.04 °W | Updated 32 minutes ago

Clear
Clear
-8 °F
Feels Like -8 °F
N
0
Wind Variable Wind from North

Today
High -- | Low -- °F
--% Chance of Precip.
Yesterday
High -- | Low -- °F
Precip. -- in
Pressure 30.16 in
Visibility 10.0 miles
Clouds Clear
Dew Point -13 °F
Humidity 77%
Rainfall 0.00 in
Snow Depth Not available.
9:32 AM 7:04 PM
Waning Crescent, 30% visible
METAR PACZ 202155Z 00000KT 10SM CLR M22/M25 A3009 RMK AO2A SLP212 LSR17UP16DN
Pressure 30.16 in
Visibility 10.0 miles
Clouds Clear
Dew Point -13 °F
Humidity 77%
Rainfall 0.00 in
Snow Depth Not available.
9:32 AM 7:04 PM
Waning Crescent, 30% visible
METAR PACZ 202155Z 00000KT 10SM CLR M22/M25 A3009 RMK AO2A SLP212 LSR17UP16DN

Get Your Daily Forecast Email!

Thanks for signing up!

Be on the lookout for a verification email in your inbox.

You'll start receiving the daily forecast at 8 AM.

×

10-Day Weather Forecast

Almanac

Astronomy

Feb. 20, 2017 Rise Set
Actual Time
Civil Twilight
Nautical Twilight
Astronomical Twilight
Moon
Length of Visible Light
Length of Day
Tomorrow will be .
, % of the Moon is Illuminated

Today's Extremes

State Highs State Lows

Community

WunderPhotos

Upload Photos

1,962,540 photos uploaded!

WunderBlog® & News

Nearby

Air Quality

  Air Quality AQ Index Pollutant
Not available.

Snow Depth

Station Depth Elevation

Earthquake Activity

City Distance Mag. Time & Date
Minimum magnitude displayed is 2.5.

Coastal Water Temperatures

Place Temperature

Stations

Nearby Weather Stations

Station Location Temp. Windchill Dew Point Humidity Wind Precip. Elev Updated Type
                   

Watches & Warnings

There are currently no watches in effect.